createdAt,value
2022-08-16T00:00:04.319Z,0
2022-08-16T00:05:00.372Z,0
2022-08-16T00:10:00.289Z,0
2022-08-16T00:15:00.182Z,0
2022-08-16T00:20:00.192Z,0
2022-08-16T00:25:00.183Z,0
2022-08-16T00:30:08.355Z,0
2022-08-16T00:35:00.525Z,0
2022-08-16T00:40:00.268Z,0
2022-08-16T00:45:00.154Z,0
2022-08-16T00:50:00.218Z,0
2022-08-16T00:55:00.184Z,0
2022-08-16T01:00:00.208Z,0
2022-08-16T01:05:09.438Z,0
2022-08-16T01:10:00.179Z,0
2022-08-16T01:15:00.166Z,0
2022-08-16T01:20:00.177Z,0
2022-08-16T01:25:00.172Z,0
2022-08-16T01:30:00.294Z,0
2022-08-16T01:35:00.178Z,0
2022-08-16T01:40:00.349Z,0
2022-08-16T01:45:00.179Z,0
2022-08-16T01:50:42.507Z,0
2022-08-16T01:55:00.183Z,0
2022-08-16T02:00:00.227Z,0
2022-08-16T02:05:00.218Z,0
2022-08-16T02:10:01.962Z,0
2022-08-16T02:15:00.298Z,0
2022-08-16T02:20:00.905Z,0
2022-08-16T02:25:00.147Z,0
2022-08-16T02:30:05.314Z,0
2022-08-16T02:35:00.150Z,0
2022-08-16T02:40:00.275Z,0
2022-08-16T02:45:00.161Z,0
2022-08-16T02:50:52.563Z,0
2022-08-16T02:55:00.197Z,0
2022-08-16T03:00:01.316Z,0
2022-08-16T03:05:00.183Z,0
2022-08-16T03:10:00.830Z,0
2022-08-16T03:15:00.190Z,0
2022-08-16T03:20:02.882Z,0
2022-08-16T03:25:00.918Z,0
2022-08-16T03:30:00.203Z,0
2022-08-16T03:35:00.214Z,0
2022-08-16T03:40:03.404Z,0
2022-08-16T03:45:03.338Z,3
2022-08-16T03:50:00.207Z,4
2022-08-16T03:55:00.206Z,8
2022-08-16T04:00:00.264Z,17
2022-08-16T04:05:00.176Z,35
2022-08-16T04:10:00.192Z,64
2022-08-16T04:15:00.200Z,116
2022-08-16T04:20:00.192Z,193
2022-08-16T04:25:00.181Z,270
2022-08-16T04:30:02.927Z,377
2022-08-16T04:35:03.455Z,537
2022-08-16T04:40:00.259Z,679
2022-08-16T04:45:01.986Z,859
2022-08-16T04:50:00.207Z,1020
2022-08-16T04:55:00.183Z,1217
2022-08-16T05:00:30.597Z,1453
2022-08-16T05:05:00.204Z,1723
2022-08-16T05:10:00.209Z,1937
2022-08-16T05:15:02.596Z,2177
2022-08-16T05:20:00.200Z,2319
2022-08-16T05:25:00.207Z,2445
2022-08-16T05:30:34.015Z,2743
2022-08-16T05:35:00.284Z,2933
2022-08-16T05:40:00.298Z,3078
2022-08-16T05:45:00.206Z,3298
2022-08-16T05:50:00.201Z,3459
2022-08-16T05:55:01.476Z,3459
2022-08-16T06:00:04.438Z,3459
2022-08-16T06:05:00.186Z,3459
2022-08-16T06:10:00.380Z,3459
2022-08-16T06:15:00.211Z,3459
2022-08-16T06:20:00.213Z,3728
2022-08-16T06:25:00.625Z,3624
2022-08-16T06:30:00.206Z,3624
2022-08-16T06:35:02.429Z,3883
2022-08-16T06:40:00.327Z,3883
2022-08-16T06:45:00.177Z,3883
2022-08-16T06:50:00.205Z,3883
2022-08-16T06:55:00.204Z,3883
2022-08-16T07:00:00.239Z,3883
2022-08-16T07:05:00.217Z,4361
2022-08-16T07:10:00.196Z,4361
2022-08-16T07:15:00.828Z,4361
2022-08-16T07:20:03.235Z,4711
2022-08-16T07:25:00.204Z,4711
2022-08-16T07:30:00.219Z,4901
2022-08-16T07:35:00.227Z,4901
2022-08-16T07:40:00.299Z,4901
2022-08-16T07:45:00.191Z,5372
2022-08-16T07:50:00.205Z,5509
2022-08-16T07:55:00.198Z,5509
2022-08-16T08:00:00.240Z,6037
2022-08-16T08:05:00.193Z,6186
2022-08-16T08:10:00.210Z,6186
2022-08-16T08:15:00.202Z,6390
2022-08-16T08:20:00.207Z,6390
2022-08-16T08:25:03.608Z,6390
2022-08-16T08:30:50.481Z,6390
2022-08-16T08:35:03.576Z,6806
2022-08-16T08:40:00.270Z,6953
2022-08-16T08:45:00.188Z,6953
2022-08-16T08:50:00.210Z,6953
2022-08-16T08:55:00.215Z,6953
2022-08-16T09:00:00.239Z,6953
2022-08-16T09:05:00.181Z,6953
2022-08-16T09:10:00.894Z,7184
2022-08-16T09:15:00.217Z,7184
2022-08-16T09:20:02.859Z,7184
2022-08-16T09:25:10.099Z,7649
2022-08-16T09:30:02.581Z,7802
2022-08-16T09:35:00.219Z,7802
2022-08-16T09:45:13.190Z,8596
2022-08-16T09:50:00.199Z,8760
2022-08-16T09:55:00.210Z,8760
2022-08-16T10:00:00.298Z,8760
2022-08-16T10:05:00.271Z,8864
2022-08-16T10:10:00.217Z,9856
2022-08-16T10:15:00.204Z,9856
2022-08-16T10:20:00.194Z,11071
2022-08-16T10:25:00.346Z,11071
2022-08-16T10:30:07.146Z,12434
2022-08-16T10:35:00.189Z,12434
2022-08-16T10:40:00.282Z,12434
2022-08-16T10:45:00.190Z,11069
2022-08-16T10:50:00.245Z,11069
2022-08-16T10:55:41.062Z,11069
2022-08-16T11:00:01.283Z,12143
2022-08-16T11:05:08.332Z,12431
2022-08-16T11:10:19.837Z,12431
2022-08-16T11:15:17.140Z,13804
2022-08-16T11:20:01.089Z,13973
2022-08-16T11:25:15.151Z,13973
2022-08-16T11:30:00.208Z,15714
2022-08-16T11:35:10.855Z,17669
2022-08-16T11:40:00.374Z,17669
2022-08-16T11:45:00.174Z,17669
2022-08-16T11:50:00.231Z,15157
2022-08-16T11:55:00.496Z,14941
2022-08-16T12:00:00.245Z,19824
2022-08-16T12:05:00.891Z,19824
2022-08-16T12:10:00.221Z,22284
2022-08-16T12:15:00.585Z,22284
2022-08-16T12:20:00.237Z,22284
2022-08-16T12:25:00.219Z,25067
2022-08-16T12:30:00.202Z,28210
2022-08-16T12:35:00.197Z,28210
2022-08-16T12:40:00.411Z,36166
2022-08-16T12:45:00.190Z,35059
2022-08-16T12:50:00.201Z,28314
2022-08-16T12:55:00.198Z,26872
2022-08-16T13:00:00.240Z,36341
2022-08-16T13:05:00.205Z,23867
2022-08-16T13:10:02.525Z,12726
2022-08-16T13:15:00.215Z,12726
2022-08-16T13:20:08.922Z,14405
2022-08-16T13:25:00.209Z,16166
2022-08-16T13:30:00.219Z,20663
2022-08-16T13:35:01.068Z,23243
2022-08-16T13:40:00.319Z,43521
2022-08-16T13:45:00.213Z,42345
2022-08-16T13:50:00.204Z,32456
2022-08-16T13:55:00.195Z,55005
2022-08-16T14:00:00.225Z,48686
2022-08-16T14:05:05.277Z,55821
2022-08-16T14:10:00.177Z,48674
2022-08-16T14:15:00.191Z,48674
2022-08-16T14:20:00.247Z,48440
2022-08-16T14:25:00.193Z,62893
2022-08-16T14:30:00.188Z,24033
2022-08-16T14:35:00.224Z,17692
2022-08-16T14:40:00.392Z,15758
2022-08-16T14:45:00.470Z,14025
2022-08-16T14:50:00.201Z,16132
2022-08-16T14:55:00.218Z,16357
2022-08-16T15:00:05.507Z,16357
2022-08-16T15:05:00.280Z,24010
2022-08-16T15:10:01.926Z,20545
2022-08-16T15:15:00.189Z,11580
2022-08-16T15:20:00.194Z,9135
2022-08-16T15:25:00.202Z,8111
2022-08-16T15:30:00.206Z,9143
2022-08-16T15:35:03.409Z,11593
2022-08-16T15:40:00.298Z,11593
2022-08-16T15:45:00.196Z,10313
2022-08-16T15:50:00.220Z,13029
2022-08-16T15:55:00.364Z,16485
2022-08-16T16:00:04.831Z,35555
2022-08-16T16:05:00.834Z,39976
2022-08-16T16:10:00.309Z,31261
2022-08-16T16:15:00.210Z,23889
2022-08-16T16:20:00.521Z,21179
2022-08-16T16:25:00.186Z,18871
2022-08-16T16:30:01.922Z,13265
2022-08-16T16:35:00.230Z,9247
2022-08-16T16:40:00.345Z,7281
2022-08-16T16:45:01.543Z,6473
2022-08-16T16:50:00.222Z,6473
2022-08-16T16:55:00.172Z,7335
2022-08-16T17:00:00.224Z,16811
2022-08-16T17:05:00.188Z,26922
2022-08-16T17:10:00.198Z,23405
2022-08-16T17:15:00.209Z,31003
2022-08-16T17:20:00.199Z,31113
2022-08-16T17:25:00.191Z,23394
2022-08-16T17:30:00.265Z,24808
2022-08-16T17:35:00.469Z,21493
2022-08-16T17:40:04.119Z,16819
2022-08-16T17:45:00.185Z,9045
2022-08-16T17:50:00.191Z,7459
2022-08-16T17:55:00.196Z,5201
2022-08-16T18:00:00.225Z,4970
2022-08-16T18:05:00.200Z,3669
2022-08-16T18:10:00.184Z,2425
2022-08-16T18:15:00.478Z,1809
2022-08-16T18:20:00.186Z,1512
2022-08-16T18:25:00.206Z,1276
2022-08-16T18:30:00.192Z,1137
2022-08-16T18:35:00.184Z,901
2022-08-16T18:40:00.875Z,712
2022-08-16T18:45:00.166Z,582
2022-08-16T18:50:00.192Z,501
2022-08-16T18:55:03.096Z,310
2022-08-16T19:00:00.242Z,191
2022-08-16T19:05:00.168Z,98
2022-08-16T19:10:00.202Z,57
2022-08-16T19:15:00.197Z,30
2022-08-16T19:20:00.204Z,15
2022-08-16T19:25:00.182Z,8
2022-08-16T19:30:00.186Z,5
2022-08-16T19:35:00.189Z,3
2022-08-16T19:40:00.342Z,2
2022-08-16T19:45:00.167Z,0
2022-08-16T19:50:00.226Z,0
2022-08-16T19:55:00.196Z,0
2022-08-16T20:00:00.260Z,0
2022-08-16T20:05:00.175Z,0
2022-08-16T20:10:00.208Z,0
2022-08-16T20:15:00.201Z,0
2022-08-16T20:20:00.177Z,0
2022-08-16T20:25:00.149Z,0
2022-08-16T20:30:00.188Z,0
2022-08-16T20:35:00.203Z,0
2022-08-16T20:40:28.069Z,0
2022-08-16T20:45:00.178Z,0
2022-08-16T20:50:00.196Z,0
2022-08-16T20:55:00.155Z,0
2022-08-16T21:00:00.224Z,0
2022-08-16T21:05:00.183Z,0
2022-08-16T21:10:00.245Z,0
2022-08-16T21:15:00.170Z,0
2022-08-16T21:20:00.189Z,0
2022-08-16T21:25:00.192Z,0
2022-08-16T21:30:00.204Z,0
2022-08-16T21:35:00.163Z,0
2022-08-16T21:40:00.310Z,0
2022-08-16T21:45:00.157Z,0
2022-08-16T21:50:00.176Z,0
2022-08-16T21:55:00.177Z,0
2022-08-16T22:00:00.293Z,0
2022-08-16T22:05:00.152Z,0
2022-08-16T22:10:00.188Z,0
2022-08-16T22:15:00.176Z,0
2022-08-16T22:20:00.177Z,0
2022-08-16T22:25:00.147Z,0
2022-08-16T22:30:00.190Z,0
2022-08-16T22:35:11.617Z,0
2022-08-16T22:40:00.349Z,0
2022-08-16T22:45:00.206Z,0
2022-08-16T22:50:00.158Z,0
2022-08-16T22:55:00.187Z,0
2022-08-16T23:00:00.243Z,0
2022-08-16T23:05:00.179Z,0
2022-08-16T23:10:00.200Z,0
2022-08-16T23:15:00.183Z,0
2022-08-16T23:20:00.212Z,0
2022-08-16T23:25:00.180Z,0
2022-08-16T23:30:00.218Z,0
2022-08-16T23:35:00.174Z,0
2022-08-16T23:40:00.293Z,0
2022-08-16T23:45:00.197Z,0
2022-08-16T23:50:03.851Z,0
2022-08-16T23:55:00.203Z,0
